Indianapolis, Indiana
Traffic Map
Current Weather Conditions
Indianapolis, Indiana
Broken Clouds
Broken Clouds
-8°
Feels Like: -8°
Wind Chill: -8° Ceiling: 25000
Heat Index: -8° Visibility: 9mi
Dew Point: -11° Wind: 3mph
Humidity: 78% Direction: 210° (SSW)
Pressure: 30.53in Gusts: 0mph
Raw Report DataKIND 021454Z 21003KT 9SM BKN250 M08/M11 A3053 RMK AO2 SLP350 T10781111 51020 $
Traffic Incident Summary
Active as of:
Severity:
Category:
InformationThere was an issue retrieving the traffic information for this location. Please try a different location or try again shortly.
Advertisements
Track Severe Weather on mobile